sensor_id;sensor_type;location;lat;lon;timestamp;P1;durP1;ratioP1;P2;durP2;ratioP2
37051;SDS011;22964;52.272;13.356;2023-07-30T00:01:32;4.40;;;2.55;;
37051;SDS011;22964;52.272;13.356;2023-07-30T00:03:58;3.65;;;2.40;;
37051;SDS011;22964;52.272;13.356;2023-07-30T00:06:24;4.07;;;3.13;;
37051;SDS011;22964;52.272;13.356;2023-07-30T00:08:50;4.63;;;3.08;;
37051;SDS011;22964;52.272;13.356;2023-07-30T00:11:16;4.20;;;3.00;;
37051;SDS011;22964;52.272;13.356;2023-07-30T00:13:42;4.25;;;2.83;;
37051;SDS011;22964;52.272;13.356;2023-07-30T00:16:07;4.22;;;2.80;;
37051;SDS011;22964;52.272;13.356;2023-07-30T00:18:33;5.25;;;2.90;;
37051;SDS011;22964;52.272;13.356;2023-07-30T00:20:59;4.65;;;2.85;;
37051;SDS011;22964;52.272;13.356;2023-07-30T00:23:25;6.43;;;3.65;;
37051;SDS011;22964;52.272;13.356;2023-07-30T00:25:50;6.65;;;3.30;;
37051;SDS011;22964;52.272;13.356;2023-07-30T00:28:16;5.07;;;3.28;;
37051;SDS011;22964;52.272;13.356;2023-07-30T00:30:42;4.65;;;3.30;;
37051;SDS011;22964;52.272;13.356;2023-07-30T00:33:08;6.57;;;3.22;;
37051;SDS011;22964;52.272;13.356;2023-07-30T00:35:33;5.68;;;3.03;;
37051;SDS011;22964;52.272;13.356;2023-07-30T00:37:59;3.95;;;2.53;;
37051;SDS011;22964;52.272;13.356;2023-07-30T00:40:25;3.63;;;2.70;;
37051;SDS011;22964;52.272;13.356;2023-07-30T00:42:50;4.90;;;2.90;;
37051;SDS011;22964;52.272;13.356;2023-07-30T00:45:16;4.07;;;2.67;;
37051;SDS011;22964;52.272;13.356;2023-07-30T00:47:43;3.60;;;2.50;;
37051;SDS011;22964;52.272;13.356;2023-07-30T00:50:09;3.50;;;2.40;;
37051;SDS011;22964;52.272;13.356;2023-07-30T00:52:37;4.68;;;2.67;;
37051;SDS011;22964;52.272;13.356;2023-07-30T00:55:05;4.85;;;2.58;;
37051;SDS011;22964;52.272;13.356;2023-07-30T00:57:32;5.45;;;2.47;;
37051;SDS011;22964;52.272;13.356;2023-07-30T01:00:00;4.07;;;2.50;;
37051;SDS011;22964;52.272;13.356;2023-07-30T01:02:31;6.13;;;2.60;;
37051;SDS011;22964;52.272;13.356;2023-07-30T01:04:57;3.85;;;2.55;;
37051;SDS011;22964;52.272;13.356;2023-07-30T01:07:25;3.53;;;2.50;;
37051;SDS011;22964;52.272;13.356;2023-07-30T01:09:51;4.35;;;2.47;;
37051;SDS011;22964;52.272;13.356;2023-07-30T01:12:17;5.63;;;2.47;;
37051;SDS011;22964;52.272;13.356;2023-07-30T01:14:44;4.00;;;2.40;;
37051;SDS011;22964;52.272;13.356;2023-07-30T01:17:11;3.78;;;2.22;;
37051;SDS011;22964;52.272;13.356;2023-07-30T01:19:37;4.35;;;2.55;;
37051;SDS011;22964;52.272;13.356;2023-07-30T01:22:03;3.30;;;2.63;;
37051;SDS011;22964;52.272;13.356;2023-07-30T01:24:29;4.20;;;2.47;;
37051;SDS011;22964;52.272;13.356;2023-07-30T01:26:55;5.20;;;2.50;;
37051;SDS011;22964;52.272;13.356;2023-07-30T01:29:31;3.92;;;2.80;;
37051;SDS011;22964;52.272;13.356;2023-07-30T01:32:11;3.08;;;2.40;;
37051;SDS011;22964;52.272;13.356;2023-07-30T01:34:39;3.15;;;2.50;;
37051;SDS011;22964;52.272;13.356;2023-07-30T01:37:07;3.65;;;2.30;;
37051;SDS011;22964;52.272;13.356;2023-07-30T01:39:36;3.17;;;2.47;;
37051;SDS011;22964;52.272;13.356;2023-07-30T01:42:04;3.38;;;2.60;;
37051;SDS011;22964;52.272;13.356;2023-07-30T01:44:30;4.13;;;2.47;;
37051;SDS011;22964;52.272;13.356;2023-07-30T01:46:56;4.00;;;2.90;;
37051;SDS011;22964;52.272;13.356;2023-07-30T01:49:21;2.95;;;2.22;;
37051;SDS011;22964;52.272;13.356;2023-07-30T01:51:48;4.75;;;2.65;;
37051;SDS011;22964;52.272;13.356;2023-07-30T01:54:14;5.93;;;2.75;;
37051;SDS011;22964;52.272;13.356;2023-07-30T01:56:40;4.20;;;2.75;;
37051;SDS011;22964;52.272;13.356;2023-07-30T01:59:06;4.03;;;2.45;;
37051;SDS011;22964;52.272;13.356;2023-07-30T02:01:31;3.45;;;2.20;;
37051;SDS011;22964;52.272;13.356;2023-07-30T02:03:57;2.80;;;2.20;;
37051;SDS011;22964;52.272;13.356;2023-07-30T02:06:23;2.63;;;2.15;;
37051;SDS011;22964;52.272;13.356;2023-07-30T02:08:48;3.05;;;2.40;;
37051;SDS011;22964;52.272;13.356;2023-07-30T02:11:14;4.28;;;2.50;;
37051;SDS011;22964;52.272;13.356;2023-07-30T02:13:40;5.35;;;2.50;;
37051;SDS011;22964;52.272;13.356;2023-07-30T02:16:06;3.35;;;2.58;;
37051;SDS011;22964;52.272;13.356;2023-07-30T02:18:32;3.35;;;2.60;;
37051;SDS011;22964;52.272;13.356;2023-07-30T02:20:58;3.47;;;2.55;;
37051;SDS011;22964;52.272;13.356;2023-07-30T02:23:24;4.57;;;2.65;;
37051;SDS011;22964;52.272;13.356;2023-07-30T02:25:50;3.25;;;2.50;;
37051;SDS011;22964;52.272;13.356;2023-07-30T02:28:15;4.75;;;2.58;;
37051;SDS011;22964;52.272;13.356;2023-07-30T02:30:41;4.25;;;2.65;;
37051;SDS011;22964;52.272;13.356;2023-07-30T02:33:07;5.47;;;2.60;;
37051;SDS011;22964;52.272;13.356;2023-07-30T02:35:33;3.78;;;2.42;;
37051;SDS011;22964;52.272;13.356;2023-07-30T02:37:59;3.67;;;2.50;;
37051;SDS011;22964;52.272;13.356;2023-07-30T02:40:25;3.05;;;2.40;;
37051;SDS011;22964;52.272;13.356;2023-07-30T02:42:50;3.72;;;2.58;;
37051;SDS011;22964;52.272;13.356;2023-07-30T02:45:16;3.63;;;2.38;;
37051;SDS011;22964;52.272;13.356;2023-07-30T02:47:43;3.97;;;2.40;;
37051;SDS011;22964;52.272;13.356;2023-07-30T02:50:09;3.75;;;2.42;;
37051;SDS011;22964;52.272;13.356;2023-07-30T02:52:35;3.40;;;2.65;;
37051;SDS011;22964;52.272;13.356;2023-07-30T02:55:00;3.55;;;2.53;;
37051;SDS011;22964;52.272;13.356;2023-07-30T02:57:26;3.72;;;2.90;;
37051;SDS011;22964;52.272;13.356;2023-07-30T02:59:52;3.85;;;2.78;;
37051;SDS011;22964;52.272;13.356;2023-07-30T03:02:17;5.88;;;2.85;;
37051;SDS011;22964;52.272;13.356;2023-07-30T03:04:43;3.78;;;3.00;;
37051;SDS011;22964;52.272;13.356;2023-07-30T03:07:09;3.25;;;2.53;;
37051;SDS011;22964;52.272;13.356;2023-07-30T03:09:35;4.97;;;2.80;;
37051;SDS011;22964;52.272;13.356;2023-07-30T03:12:00;6.90;;;2.80;;
37051;SDS011;22964;52.272;13.356;2023-07-30T03:14:26;3.58;;;2.60;;
37051;SDS011;22964;52.272;13.356;2023-07-30T03:16:52;3.25;;;2.63;;
37051;SDS011;22964;52.272;13.356;2023-07-30T03:19:18;3.47;;;2.70;;
37051;SDS011;22964;52.272;13.356;2023-07-30T03:21:43;3.90;;;2.67;;
37051;SDS011;22964;52.272;13.356;2023-07-30T03:24:09;4.25;;;2.72;;
37051;SDS011;22964;52.272;13.356;2023-07-30T03:26:35;4.20;;;2.92;;
37051;SDS011;22964;52.272;13.356;2023-07-30T03:29:00;4.72;;;2.70;;
37051;SDS011;22964;52.272;13.356;2023-07-30T03:31:26;7.22;;;2.83;;
37051;SDS011;22964;52.272;13.356;2023-07-30T03:33:53;3.70;;;2.63;;
37051;SDS011;22964;52.272;13.356;2023-07-30T03:36:20;3.55;;;2.60;;
37051;SDS011;22964;52.272;13.356;2023-07-30T03:38:45;3.40;;;2.50;;
37051;SDS011;22964;52.272;13.356;2023-07-30T03:41:11;4.65;;;2.80;;
37051;SDS011;22964;52.272;13.356;2023-07-30T03:43:37;4.53;;;2.75;;
37051;SDS011;22964;52.272;13.356;2023-07-30T03:46:03;4.82;;;2.65;;
37051;SDS011;22964;52.272;13.356;2023-07-30T03:48:29;3.78;;;2.65;;
37051;SDS011;22964;52.272;13.356;2023-07-30T03:50:55;3.75;;;2.70;;
37051;SDS011;22964;52.272;13.356;2023-07-30T03:53:22;3.88;;;2.67;;
37051;SDS011;22964;52.272;13.356;2023-07-30T03:55:48;4.95;;;2.88;;
37051;SDS011;22964;52.272;13.356;2023-07-30T03:58:13;3.45;;;2.70;;
37051;SDS011;22964;52.272;13.356;2023-07-30T04:00:39;3.30;;;2.50;;
37051;SDS011;22964;52.272;13.356;2023-07-30T04:03:05;3.67;;;2.70;;
37051;SDS011;22964;52.272;13.356;2023-07-30T04:05:31;3.35;;;2.70;;
37051;SDS011;22964;52.272;13.356;2023-07-30T04:07:59;5.38;;;2.80;;
37051;SDS011;22964;52.272;13.356;2023-07-30T04:10:26;3.92;;;2.60;;
37051;SDS011;22964;52.272;13.356;2023-07-30T04:12:52;3.72;;;2.78;;
37051;SDS011;22964;52.272;13.356;2023-07-30T04:15:17;3.83;;;2.80;;
37051;SDS011;22964;52.272;13.356;2023-07-30T04:17:43;3.88;;;2.80;;
37051;SDS011;22964;52.272;13.356;2023-07-30T04:20:09;6.00;;;3.30;;
37051;SDS011;22964;52.272;13.356;2023-07-30T04:22:35;4.00;;;2.55;;
37051;SDS011;22964;52.272;13.356;2023-07-30T04:25:02;5.50;;;3.30;;
37051;SDS011;22964;52.272;13.356;2023-07-30T04:27:29;4.60;;;2.90;;
37051;SDS011;22964;52.272;13.356;2023-07-30T04:29:54;3.65;;;2.55;;
37051;SDS011;22964;52.272;13.356;2023-07-30T04:32:20;4.47;;;2.85;;
37051;SDS011;22964;52.272;13.356;2023-07-30T04:34:46;5.40;;;3.00;;
37051;SDS011;22964;52.272;13.356;2023-07-30T04:37:12;4.03;;;2.83;;
37051;SDS011;22964;52.272;13.356;2023-07-30T04:39:38;7.10;;;3.03;;
37051;SDS011;22964;52.272;13.356;2023-07-30T04:42:04;3.42;;;2.88;;
37051;SDS011;22964;52.272;13.356;2023-07-30T04:44:30;4.68;;;3.58;;
37051;SDS011;22964;52.272;13.356;2023-07-30T04:49:28;3.15;;;2.60;;
37051;SDS011;22964;52.272;13.356;2023-07-30T04:51:53;4.55;;;3.00;;
37051;SDS011;22964;52.272;13.356;2023-07-30T04:54:19;5.20;;;2.90;;
37051;SDS011;22964;52.272;13.356;2023-07-30T04:56:45;4.93;;;3.08;;
37051;SDS011;22964;52.272;13.356;2023-07-30T04:59:10;7.43;;;2.90;;
37051;SDS011;22964;52.272;13.356;2023-07-30T05:01:36;13.73;;;3.08;;
37051;SDS011;22964;52.272;13.356;2023-07-30T05:04:02;4.57;;;3.03;;
37051;SDS011;22964;52.272;13.356;2023-07-30T05:06:28;4.40;;;2.90;;
37051;SDS011;22964;52.272;13.356;2023-07-30T05:08:53;4.13;;;3.10;;
37051;SDS011;22964;52.272;13.356;2023-07-30T05:11:19;5.78;;;3.10;;
37051;SDS011;22964;52.272;13.356;2023-07-30T05:13:45;4.88;;;2.92;;
37051;SDS011;22964;52.272;13.356;2023-07-30T05:16:11;4.65;;;2.88;;
37051;SDS011;22964;52.272;13.356;2023-07-30T05:18:36;5.30;;;3.00;;
37051;SDS011;22964;52.272;13.356;2023-07-30T05:21:02;4.13;;;3.20;;
37051;SDS011;22964;52.272;13.356;2023-07-30T05:23:28;6.80;;;3.10;;
37051;SDS011;22964;52.272;13.356;2023-07-30T05:25:54;4.15;;;3.35;;
37051;SDS011;22964;52.272;13.356;2023-07-30T05:28:19;4.85;;;3.50;;
37051;SDS011;22964;52.272;13.356;2023-07-30T05:30:45;4.28;;;3.05;;
37051;SDS011;22964;52.272;13.356;2023-07-30T05:33:11;5.10;;;3.15;;
37051;SDS011;22964;52.272;13.356;2023-07-30T05:35:36;5.43;;;3.13;;
37051;SDS011;22964;52.272;13.356;2023-07-30T05:38:02;4.85;;;2.92;;
37051;SDS011;22964;52.272;13.356;2023-07-30T05:40:28;4.05;;;2.78;;
37051;SDS011;22964;52.272;13.356;2023-07-30T05:42:53;3.70;;;3.05;;
37051;SDS011;22964;52.272;13.356;2023-07-30T05:45:19;4.80;;;2.92;;
37051;SDS011;22964;52.272;13.356;2023-07-30T05:47:45;4.88;;;3.20;;
37051;SDS011;22964;52.272;13.356;2023-07-30T05:50:10;4.47;;;2.60;;
37051;SDS011;22964;52.272;13.356;2023-07-30T05:52:36;3.95;;;2.70;;
37051;SDS011;22964;52.272;13.356;2023-07-30T05:55:02;3.33;;;2.53;;
37051;SDS011;22964;52.272;13.356;2023-07-30T05:57:27;3.83;;;2.67;;
37051;SDS011;22964;52.272;13.356;2023-07-30T05:59:53;4.25;;;2.47;;
37051;SDS011;22964;52.272;13.356;2023-07-30T06:02:19;8.60;;;2.95;;
37051;SDS011;22964;52.272;13.356;2023-07-30T06:04:45;4.68;;;2.75;;
37051;SDS011;22964;52.272;13.356;2023-07-30T06:07:10;3.00;;;2.70;;
37051;SDS011;22964;52.272;13.356;2023-07-30T06:09:36;3.63;;;3.10;;
37051;SDS011;22964;52.272;13.356;2023-07-30T06:12:02;4.20;;;2.60;;
37051;SDS011;22964;52.272;13.356;2023-07-30T06:14:28;3.88;;;2.67;;
37051;SDS011;22964;52.272;13.356;2023-07-30T06:16:54;4.05;;;2.55;;
37051;SDS011;22964;52.272;13.356;2023-07-30T06:19:20;3.10;;;2.42;;
37051;SDS011;22964;52.272;13.356;2023-07-30T06:21:46;4.93;;;2.47;;
37051;SDS011;22964;52.272;13.356;2023-07-30T06:24:11;3.92;;;2.78;;
37051;SDS011;22964;52.272;13.356;2023-07-30T06:26:37;4.10;;;2.60;;
37051;SDS011;22964;52.272;13.356;2023-07-30T06:29:03;3.58;;;2.50;;
37051;SDS011;22964;52.272;13.356;2023-07-30T06:31:28;3.33;;;2.58;;
37051;SDS011;22964;52.272;13.356;2023-07-30T06:33:54;3.70;;;2.65;;
37051;SDS011;22964;52.272;13.356;2023-07-30T06:36:20;4.45;;;2.60;;
37051;SDS011;22964;52.272;13.356;2023-07-30T06:38:46;2.58;;;2.08;;
37051;SDS011;22964;52.272;13.356;2023-07-30T06:41:12;3.72;;;2.40;;
37051;SDS011;22964;52.272;13.356;2023-07-30T06:43:38;4.15;;;2.33;;
37051;SDS011;22964;52.272;13.356;2023-07-30T06:46:03;3.10;;;2.30;;
37051;SDS011;22964;52.272;13.356;2023-07-30T06:48:29;5.10;;;2.30;;
37051;SDS011;22964;52.272;13.356;2023-07-30T06:50:55;3.50;;;2.30;;
37051;SDS011;22964;52.272;13.356;2023-07-30T06:53:21;3.85;;;2.22;;
37051;SDS011;22964;52.272;13.356;2023-07-30T06:55:47;2.70;;;2.20;;
37051;SDS011;22964;52.272;13.356;2023-07-30T06:58:12;4.25;;;2.20;;
37051;SDS011;22964;52.272;13.356;2023-07-30T07:00:39;3.67;;;2.00;;
37051;SDS011;22964;52.272;13.356;2023-07-30T07:03:04;3.30;;;2.13;;
37051;SDS011;22964;52.272;13.356;2023-07-30T07:05:30;4.43;;;2.20;;
37051;SDS011;22964;52.272;13.356;2023-07-30T07:07:56;3.20;;;2.35;;
37051;SDS011;22964;52.272;13.356;2023-07-30T07:10:22;4.63;;;2.30;;
37051;SDS011;22964;52.272;13.356;2023-07-30T07:12:47;3.00;;;2.08;;
37051;SDS011;22964;52.272;13.356;2023-07-30T07:15:13;3.00;;;1.90;;
37051;SDS011;22964;52.272;13.356;2023-07-30T07:17:39;3.25;;;1.90;;
37051;SDS011;22964;52.272;13.356;2023-07-30T07:20:05;4.25;;;2.20;;
37051;SDS011;22964;52.272;13.356;2023-07-30T07:22:32;3.03;;;1.90;;
37051;SDS011;22964;52.272;13.356;2023-07-30T07:24:58;4.22;;;2.03;;
37051;SDS011;22964;52.272;13.356;2023-07-30T07:27:24;6.22;;;2.17;;
37051;SDS011;22964;52.272;13.356;2023-07-30T07:29:51;2.45;;;1.90;;
37051;SDS011;22964;52.272;13.356;2023-07-30T07:32:18;3.13;;;1.88;;
37051;SDS011;22964;52.272;13.356;2023-07-30T07:34:47;4.30;;;2.00;;
37051;SDS011;22964;52.272;13.356;2023-07-30T07:37:14;2.92;;;1.73;;
37051;SDS011;22964;52.272;13.356;2023-07-30T07:39:42;2.85;;;1.60;;
37051;SDS011;22964;52.272;13.356;2023-07-30T07:42:08;2.45;;;1.83;;
37051;SDS011;22964;52.272;13.356;2023-07-30T07:44:34;3.28;;;1.90;;
37051;SDS011;22964;52.272;13.356;2023-07-30T07:47:00;2.47;;;1.58;;
37051;SDS011;22964;52.272;13.356;2023-07-30T07:49:26;6.10;;;2.35;;
37051;SDS011;22964;52.272;13.356;2023-07-30T07:51:52;6.97;;;1.92;;
37051;SDS011;22964;52.272;13.356;2023-07-30T07:54:17;2.90;;;2.08;;
37051;SDS011;22964;52.272;13.356;2023-07-30T07:56:43;2.45;;;1.80;;
37051;SDS011;22964;52.272;13.356;2023-07-30T07:59:09;4.22;;;1.90;;
37051;SDS011;22964;52.272;13.356;2023-07-30T08:01:34;3.22;;;1.75;;
37051;SDS011;22964;52.272;13.356;2023-07-30T08:04:00;3.83;;;2.05;;
37051;SDS011;22964;52.272;13.356;2023-07-30T08:06:26;3.10;;;1.90;;
37051;SDS011;22964;52.272;13.356;2023-07-30T08:08:52;2.47;;;1.73;;
37051;SDS011;22964;52.272;13.356;2023-07-30T08:11:18;2.83;;;1.70;;
37051;SDS011;22964;52.272;13.356;2023-07-30T08:13:44;3.00;;;1.85;;
37051;SDS011;22964;52.272;13.356;2023-07-30T08:16:11;3.47;;;1.80;;
37051;SDS011;22964;52.272;13.356;2023-07-30T08:18:36;4.03;;;1.88;;
37051;SDS011;22964;52.272;13.356;2023-07-30T08:21:02;3.17;;;1.80;;
37051;SDS011;22964;52.272;13.356;2023-07-30T08:23:28;4.20;;;1.50;;
37051;SDS011;22964;52.272;13.356;2023-07-30T08:25:54;2.45;;;1.42;;
37051;SDS011;22964;52.272;13.356;2023-07-30T08:28:19;3.85;;;1.60;;
37051;SDS011;22964;52.272;13.356;2023-07-30T08:30:45;2.70;;;1.60;;
37051;SDS011;22964;52.272;13.356;2023-07-30T08:33:11;2.95;;;1.60;;
37051;SDS011;22964;52.272;13.356;2023-07-30T08:35:37;1.92;;;1.42;;
37051;SDS011;22964;52.272;13.356;2023-07-30T08:38:03;2.90;;;1.52;;
37051;SDS011;22964;52.272;13.356;2023-07-30T08:40:28;2.05;;;1.50;;
37051;SDS011;22964;52.272;13.356;2023-07-30T08:42:54;1.85;;;1.35;;
37051;SDS011;22964;52.272;13.356;2023-07-30T08:45:20;2.63;;;1.70;;
37051;SDS011;22964;52.272;13.356;2023-07-30T08:47:46;3.13;;;2.20;;
37051;SDS011;22964;52.272;13.356;2023-07-30T08:50:12;3.67;;;1.90;;
37051;SDS011;22964;52.272;13.356;2023-07-30T08:52:38;2.10;;;1.50;;
37051;SDS011;22964;52.272;13.356;2023-07-30T08:55:05;2.97;;;1.58;;
37051;SDS011;22964;52.272;13.356;2023-07-30T08:57:31;1.80;;;1.40;;
37051;SDS011;22964;52.272;13.356;2023-07-30T09:02:34;2.25;;;1.50;;
37051;SDS011;22964;52.272;13.356;2023-07-30T09:05:04;3.03;;;1.50;;
37051;SDS011;22964;52.272;13.356;2023-07-30T09:07:31;3.22;;;1.60;;
37051;SDS011;22964;52.272;13.356;2023-07-30T09:09:56;1.65;;;1.40;;
37051;SDS011;22964;52.272;13.356;2023-07-30T09:12:28;3.33;;;1.60;;
37051;SDS011;22964;52.272;13.356;2023-07-30T09:14:55;3.03;;;1.73;;
37051;SDS011;22964;52.272;13.356;2023-07-30T09:17:21;2.13;;;1.38;;
37051;SDS011;22964;52.272;13.356;2023-07-30T09:19:46;5.38;;;1.58;;
37051;SDS011;22964;52.272;13.356;2023-07-30T09:22:12;2.95;;;1.60;;
37051;SDS011;22964;52.272;13.356;2023-07-30T09:24:43;3.58;;;1.67;;
37051;SDS011;22964;52.272;13.356;2023-07-30T09:27:09;2.00;;;1.45;;
37051;SDS011;22964;52.272;13.356;2023-07-30T09:29:34;2.65;;;1.42;;
37051;SDS011;22964;52.272;13.356;2023-07-30T09:32:00;2.60;;;1.50;;
37051;SDS011;22964;52.272;13.356;2023-07-30T09:34:26;2.63;;;1.60;;
37051;SDS011;22964;52.272;13.356;2023-07-30T09:36:53;2.30;;;1.35;;
37051;SDS011;22964;52.272;13.356;2023-07-30T09:39:23;2.47;;;1.63;;
37051;SDS011;22964;52.272;13.356;2023-07-30T09:41:50;3.90;;;1.42;;
37051;SDS011;22964;52.272;13.356;2023-07-30T09:44:18;3.63;;;1.48;;
37051;SDS011;22964;52.272;13.356;2023-07-30T09:46:46;3.30;;;1.90;;
37051;SDS011;22964;52.272;13.356;2023-07-30T09:49:13;2.35;;;1.42;;
37051;SDS011;22964;52.272;13.356;2023-07-30T09:51:40;3.63;;;1.40;;
37051;SDS011;22964;52.272;13.356;2023-07-30T09:54:07;3.20;;;1.52;;
37051;SDS011;22964;52.272;13.356;2023-07-30T09:56:37;2.60;;;1.40;;
37051;SDS011;22964;52.272;13.356;2023-07-30T09:59:05;2.80;;;1.48;;
37051;SDS011;22964;52.272;13.356;2023-07-30T10:01:32;2.53;;;1.45;;
37051;SDS011;22964;52.272;13.356;2023-07-30T10:06:32;2.95;;;1.42;;
37051;SDS011;22964;52.272;13.356;2023-07-30T10:09:01;2.03;;;1.30;;
37051;SDS011;22964;52.272;13.356;2023-07-30T10:11:27;5.10;;;1.50;;
37051;SDS011;22964;52.272;13.356;2023-07-30T10:13:54;2.22;;;1.50;;
37051;SDS011;22964;52.272;13.356;2023-07-30T10:16:25;2.38;;;1.40;;
37051;SDS011;22964;52.272;13.356;2023-07-30T10:18:55;2.08;;;1.38;;
37051;SDS011;22964;52.272;13.356;2023-07-30T10:21:25;2.20;;;1.20;;
37051;SDS011;22964;52.272;13.356;2023-07-30T10:23:59;2.85;;;1.30;;
37051;SDS011;22964;52.272;13.356;2023-07-30T10:26:29;2.33;;;1.33;;
37051;SDS011;22964;52.272;13.356;2023-07-30T10:29:18;2.45;;;1.30;;
37051;SDS011;22964;52.272;13.356;2023-07-30T10:31:49;3.90;;;1.40;;
37051;SDS011;22964;52.272;13.356;2023-07-30T10:34:21;2.40;;;1.27;;
37051;SDS011;22964;52.272;13.356;2023-07-30T10:36:50;2.35;;;1.40;;
37051;SDS011;22964;52.272;13.356;2023-07-30T10:39:18;2.15;;;1.27;;
37051;SDS011;22964;52.272;13.356;2023-07-30T10:41:49;3.75;;;1.58;;
37051;SDS011;22964;52.272;13.356;2023-07-30T10:44:25;3.50;;;1.40;;
37051;SDS011;22964;52.272;13.356;2023-07-30T10:46:53;2.05;;;1.20;;
37051;SDS011;22964;52.272;13.356;2023-07-30T10:49:19;2.53;;;1.23;;
37051;SDS011;22964;52.272;13.356;2023-07-30T10:51:45;2.75;;;1.40;;
37051;SDS011;22964;52.272;13.356;2023-07-30T10:54:11;2.35;;;1.13;;
37051;SDS011;22964;52.272;13.356;2023-07-30T10:56:37;3.42;;;1.30;;
37051;SDS011;22964;52.272;13.356;2023-07-30T10:59:05;3.00;;;1.40;;
37051;SDS011;22964;52.272;13.356;2023-07-30T11:01:35;2.67;;;1.20;;
37051;SDS011;22964;52.272;13.356;2023-07-30T11:06:37;2.03;;;1.10;;
37051;SDS011;22964;52.272;13.356;2023-07-30T11:09:03;2.03;;;1.30;;
37051;SDS011;22964;52.272;13.356;2023-07-30T11:11:29;2.95;;;1.30;;
37051;SDS011;22964;52.272;13.356;2023-07-30T11:13:56;5.60;;;1.90;;
37051;SDS011;22964;52.272;13.356;2023-07-30T11:16:23;2.80;;;1.30;;
37051;SDS011;22964;52.272;13.356;2023-07-30T11:18:49;3.58;;;1.60;;
37051;SDS011;22964;52.272;13.356;2023-07-30T11:21:16;3.47;;;1.42;;
37051;SDS011;22964;52.272;13.356;2023-07-30T11:23:43;2.20;;;1.20;;
37051;SDS011;22964;52.272;13.356;2023-07-30T11:26:17;12.80;;;1.27;;
37051;SDS011;22964;52.272;13.356;2023-07-30T11:28:44;1.77;;;1.10;;
37051;SDS011;22964;52.272;13.356;2023-07-30T11:31:11;1.48;;;1.10;;
37051;SDS011;22964;52.272;13.356;2023-07-30T11:33:43;2.38;;;1.20;;
37051;SDS011;22964;52.272;13.356;2023-07-30T11:36:11;3.05;;;1.55;;
37051;SDS011;22964;52.272;13.356;2023-07-30T11:38:39;2.28;;;1.30;;
37051;SDS011;22964;52.272;13.356;2023-07-30T11:41:06;1.92;;;1.23;;
37051;SDS011;22964;52.272;13.356;2023-07-30T11:43:35;3.10;;;1.40;;
37051;SDS011;22964;52.272;13.356;2023-07-30T11:46:12;2.00;;;1.17;;
37051;SDS011;22964;52.272;13.356;2023-07-30T11:48:43;2.22;;;1.35;;
37051;SDS011;22964;52.272;13.356;2023-07-30T11:58:56;4.05;;;1.30;;
37051;SDS011;22964;52.272;13.356;2023-07-30T12:01:25;3.50;;;1.40;;
37051;SDS011;22964;52.272;13.356;2023-07-30T12:03:59;2.85;;;1.33;;
37051;SDS011;22964;52.272;13.356;2023-07-30T12:06:42;2.55;;;1.27;;
37051;SDS011;22964;52.272;13.356;2023-07-30T12:09:15;1.70;;;1.20;;
37051;SDS011;22964;52.272;13.356;2023-07-30T12:11:44;4.90;;;1.27;;
37051;SDS011;22964;52.272;13.356;2023-07-30T12:14:29;3.20;;;1.25;;
37051;SDS011;22964;52.272;13.356;2023-07-30T12:17:13;2.78;;;1.40;;
37051;SDS011;22964;52.272;13.356;2023-07-30T12:19:39;3.45;;;1.35;;
37051;SDS011;22964;52.272;13.356;2023-07-30T12:22:05;2.10;;;1.30;;
37051;SDS011;22964;52.272;13.356;2023-07-30T12:24:31;2.35;;;1.52;;
37051;SDS011;22964;52.272;13.356;2023-07-30T12:26:57;3.00;;;1.38;;
37051;SDS011;22964;52.272;13.356;2023-07-30T12:29:23;2.53;;;1.30;;
37051;SDS011;22964;52.272;13.356;2023-07-30T12:31:49;2.13;;;1.30;;
37051;SDS011;22964;52.272;13.356;2023-07-30T12:34:18;2.50;;;1.45;;
37051;SDS011;22964;52.272;13.356;2023-07-30T12:36:44;2.88;;;1.23;;
37051;SDS011;22964;52.272;13.356;2023-07-30T12:39:10;2.58;;;1.30;;
37051;SDS011;22964;52.272;13.356;2023-07-30T12:41:36;1.95;;;1.10;;
37051;SDS011;22964;52.272;13.356;2023-07-30T12:44:01;2.55;;;1.35;;
37051;SDS011;22964;52.272;13.356;2023-07-30T12:46:29;2.92;;;1.30;;
37051;SDS011;22964;52.272;13.356;2023-07-30T12:48:57;2.30;;;1.38;;
37051;SDS011;22964;52.272;13.356;2023-07-30T12:51:23;4.70;;;1.50;;
37051;SDS011;22964;52.272;13.356;2023-07-30T12:53:48;3.30;;;1.33;;
37051;SDS011;22964;52.272;13.356;2023-07-30T12:56:14;1.77;;;1.20;;
37051;SDS011;22964;52.272;13.356;2023-07-30T12:58:40;4.43;;;1.38;;
37051;SDS011;22964;52.272;13.356;2023-07-30T13:01:06;4.55;;;1.38;;
37051;SDS011;22964;52.272;13.356;2023-07-30T13:03:32;3.72;;;1.40;;
37051;SDS011;22964;52.272;13.356;2023-07-30T13:05:58;1.95;;;1.30;;
37051;SDS011;22964;52.272;13.356;2023-07-30T13:08:24;2.30;;;1.20;;
37051;SDS011;22964;52.272;13.356;2023-07-30T13:10:49;4.35;;;1.33;;
37051;SDS011;22964;52.272;13.356;2023-07-30T13:13:15;2.22;;;1.20;;
37051;SDS011;22964;52.272;13.356;2023-07-30T13:15:41;2.92;;;1.73;;
37051;SDS011;22964;52.272;13.356;2023-07-30T13:18:06;2.00;;;1.33;;
37051;SDS011;22964;52.272;13.356;2023-07-30T13:20:32;1.88;;;1.20;;
37051;SDS011;22964;52.272;13.356;2023-07-30T13:22:58;2.17;;;1.20;;
37051;SDS011;22964;52.272;13.356;2023-07-30T13:25:23;2.45;;;1.30;;
37051;SDS011;22964;52.272;13.356;2023-07-30T13:27:49;2.33;;;1.40;;
37051;SDS011;22964;52.272;13.356;2023-07-30T13:30:15;2.53;;;1.63;;
37051;SDS011;22964;52.272;13.356;2023-07-30T13:32:41;2.38;;;1.40;;
37051;SDS011;22964;52.272;13.356;2023-07-30T13:35:07;2.67;;;1.20;;
37051;SDS011;22964;52.272;13.356;2023-07-30T13:37:33;2.20;;;1.30;;
37051;SDS011;22964;52.272;13.356;2023-07-30T13:39:58;2.63;;;1.30;;
37051;SDS011;22964;52.272;13.356;2023-07-30T13:42:24;4.32;;;1.20;;
37051;SDS011;22964;52.272;13.356;2023-07-30T13:44:51;2.08;;;1.20;;
37051;SDS011;22964;52.272;13.356;2023-07-30T13:47:16;1.65;;;1.30;;
37051;SDS011;22964;52.272;13.356;2023-07-30T13:49:42;1.88;;;1.10;;
37051;SDS011;22964;52.272;13.356;2023-07-30T13:52:08;3.50;;;1.20;;
37051;SDS011;22964;52.272;13.356;2023-07-30T13:54:33;2.08;;;1.00;;
37051;SDS011;22964;52.272;13.356;2023-07-30T13:57:03;4.05;;;1.25;;
37051;SDS011;22964;52.272;13.356;2023-07-30T13:59:30;1.77;;;1.02;;
37051;SDS011;22964;52.272;13.356;2023-07-30T14:01:56;2.00;;;0.95;;
37051;SDS011;22964;52.272;13.356;2023-07-30T14:04:21;3.78;;;1.20;;
37051;SDS011;22964;52.272;13.356;2023-07-30T14:06:47;2.05;;;1.10;;
37051;SDS011;22964;52.272;13.356;2023-07-30T14:09:13;1.70;;;1.05;;
37051;SDS011;22964;52.272;13.356;2023-07-30T14:11:38;1.48;;;1.00;;
37051;SDS011;22964;52.272;13.356;2023-07-30T14:14:08;1.23;;;0.85;;
37051;SDS011;22964;52.272;13.356;2023-07-30T14:16:33;3.95;;;0.95;;
37051;SDS011;22964;52.272;13.356;2023-07-30T14:18:59;2.78;;;1.20;;
37051;SDS011;22964;52.272;13.356;2023-07-30T14:21:25;1.38;;;0.98;;
37051;SDS011;22964;52.272;13.356;2023-07-30T14:23:50;1.42;;;0.82;;
37051;SDS011;22964;52.272;13.356;2023-07-30T14:26:16;1.52;;;0.93;;
37051;SDS011;22964;52.272;13.356;2023-07-30T14:28:42;1.80;;;0.90;;
37051;SDS011;22964;52.272;13.356;2023-07-30T14:31:07;1.58;;;1.00;;
37051;SDS011;22964;52.272;13.356;2023-07-30T14:33:33;1.38;;;0.80;;
37051;SDS011;22964;52.272;13.356;2023-07-30T14:35:59;3.60;;;1.08;;
37051;SDS011;22964;52.272;13.356;2023-07-30T14:38:25;3.72;;;1.10;;
37051;SDS011;22964;52.272;13.356;2023-07-30T14:40:50;2.95;;;1.10;;
37051;SDS011;22964;52.272;13.356;2023-07-30T14:43:16;1.48;;;0.80;;
37051;SDS011;22964;52.272;13.356;2023-07-30T14:45:42;1.42;;;1.00;;
37051;SDS011;22964;52.272;13.356;2023-07-30T14:48:08;1.63;;;0.90;;